sensor_id;sensor_type;location;lat;lon;timestamp;pressure;altitude;pressure_sealevel;temperature;humidity
51452;BME280;37521;52.020;-1.740;2023-04-28T00:00:01;99063.63;;;6.39;100.00
51452;BME280;37521;52.020;-1.740;2023-04-28T00:02:30;99054.00;;;6.40;100.00
51452;BME280;37521;52.020;-1.740;2023-04-28T00:05:00;99042.66;;;6.39;100.00
51452;BME280;37521;52.020;-1.740;2023-04-28T00:07:28;99043.44;;;6.41;100.00
51452;BME280;37521;52.020;-1.740;2023-04-28T00:09:58;99039.84;;;6.44;100.00
51452;BME280;37521;52.020;-1.740;2023-04-28T00:12:26;99045.66;;;6.50;100.00
51452;BME280;37521;52.020;-1.740;2023-04-28T00:14:54;99040.16;;;6.57;100.00
51452;BME280;37521;52.020;-1.740;2023-04-28T00:17:22;99047.78;;;6.61;100.00
51452;BME280;37521;52.020;-1.740;2023-04-28T00:19:50;99048.59;;;6.63;100.00
51452;BME280;37521;52.020;-1.740;2023-04-28T00:22:19;99044.97;;;6.66;100.00
51452;BME280;37521;52.020;-1.740;2023-04-28T00:24:47;99052.75;;;6.67;100.00
51452;BME280;37521;52.020;-1.740;2023-04-28T00:27:17;99037.81;;;6.69;100.00
51452;BME280;37521;52.020;-1.740;2023-04-28T00:29:46;99049.94;;;6.72;100.00
51452;BME280;37521;52.020;-1.740;2023-04-28T00:32:14;99036.81;;;6.72;100.00
51452;BME280;37521;52.020;-1.740;2023-04-28T00:34:42;99031.56;;;6.72;100.00
51452;BME280;37521;52.020;-1.740;2023-04-28T00:37:11;99032.34;;;6.74;100.00
51452;BME280;37521;52.020;-1.740;2023-04-28T00:39:39;99030.50;;;6.76;100.00
51452;BME280;37521;52.020;-1.740;2023-04-28T00:42:07;99033.91;;;6.78;100.00
51452;BME280;37521;52.020;-1.740;2023-04-28T00:44:37;99034.69;;;6.80;100.00
51452;BME280;37521;52.020;-1.740;2023-04-28T00:47:07;99032.91;;;6.80;100.00
51452;BME280;37521;52.020;-1.740;2023-04-28T00:49:36;99031.97;;;6.81;100.00
51452;BME280;37521;52.020;-1.740;2023-04-28T00:52:05;99037.19;;;6.83;100.00
51452;BME280;37521;52.020;-1.740;2023-04-28T00:54:33;99031.94;;;6.83;100.00
51452;BME280;37521;52.020;-1.740;2023-04-28T00:57:02;99030.19;;;6.82;100.00
51452;BME280;37521;52.020;-1.740;2023-04-28T00:59:30;99031.97;;;6.81;100.00
51452;BME280;37521;52.020;-1.740;2023-04-28T01:02:00;99013.63;;;6.81;100.00
51452;BME280;37521;52.020;-1.740;2023-04-28T01:04:29;99021.44;;;6.83;100.00
51452;BME280;37521;52.020;-1.740;2023-04-28T01:06:59;99008.25;;;6.85;100.00
51452;BME280;37521;52.020;-1.740;2023-04-28T01:09:27;99016.97;;;6.85;100.00
51452;BME280;37521;52.020;-1.740;2023-04-28T01:11:56;99017.81;;;6.86;100.00
51452;BME280;37521;52.020;-1.740;2023-04-28T01:14:34;99016.03;;;6.86;100.00
51452;BME280;37521;52.020;-1.740;2023-04-28T01:17:04;99027.28;;;6.88;100.00
51452;BME280;37521;52.020;-1.740;2023-04-28T01:19:32;99011.63;;;6.87;100.00
51452;BME280;37521;52.020;-1.740;2023-04-28T01:22:00;99021.16;;;6.89;100.00
51452;BME280;37521;52.020;-1.740;2023-04-28T01:24:30;99012.06;;;6.96;100.00
51452;BME280;37521;52.020;-1.740;2023-04-28T01:27:02;99015.16;;;7.04;100.00
51452;BME280;37521;52.020;-1.740;2023-04-28T01:29:30;99016.41;;;7.15;100.00
51452;BME280;37521;52.020;-1.740;2023-04-28T01:31:59;99010.88;;;7.21;100.00
51452;BME280;37521;52.020;-1.740;2023-04-28T01:34:27;99015.91;;;7.25;100.00
51452;BME280;37521;52.020;-1.740;2023-04-28T01:36:55;99007.00;;;7.28;100.00
51452;BME280;37521;52.020;-1.740;2023-04-28T01:39:23;99015.75;;;7.28;100.00
51452;BME280;37521;52.020;-1.740;2023-04-28T01:41:53;99013.13;;;7.28;100.00
51452;BME280;37521;52.020;-1.740;2023-04-28T01:44:21;99026.19;;;7.30;100.00
51452;BME280;37521;52.020;-1.740;2023-04-28T01:46:49;99017.53;;;7.28;100.00
51452;BME280;37521;52.020;-1.740;2023-04-28T01:49:18;99020.16;;;7.28;100.00
51452;BME280;37521;52.020;-1.740;2023-04-28T01:51:46;99017.53;;;7.28;100.00
51452;BME280;37521;52.020;-1.740;2023-04-28T01:54:14;99019.25;;;7.29;100.00
51452;BME280;37521;52.020;-1.740;2023-04-28T01:56:43;99008.75;;;7.29;100.00
51452;BME280;37521;52.020;-1.740;2023-04-28T01:59:15;99013.81;;;7.32;100.00
51452;BME280;37521;52.020;-1.740;2023-04-28T02:01:44;99008.56;;;7.32;100.00
51452;BME280;37521;52.020;-1.740;2023-04-28T02:04:13;99017.22;;;7.34;100.00
51452;BME280;37521;52.020;-1.740;2023-04-28T02:06:41;99011.97;;;7.34;100.00
51452;BME280;37521;52.020;-1.740;2023-04-28T02:09:11;99017.09;;;7.37;100.00
51452;BME280;37521;52.020;-1.740;2023-04-28T02:11:39;99013.53;;;7.38;100.00
51452;BME280;37521;52.020;-1.740;2023-04-28T02:14:08;99015.22;;;7.39;100.00
51452;BME280;37521;52.020;-1.740;2023-04-28T02:16:37;99011.84;;;7.37;100.00
51452;BME280;37521;52.020;-1.740;2023-04-28T02:19:05;99016.28;;;7.35;100.00
51452;BME280;37521;52.020;-1.740;2023-04-28T02:21:33;99018.06;;;7.34;100.00
51452;BME280;37521;52.020;-1.740;2023-04-28T02:24:01;99014.75;;;7.31;100.00
51452;BME280;37521;52.020;-1.740;2023-04-28T02:26:30;99010.50;;;7.28;100.00
51452;BME280;37521;52.020;-1.740;2023-04-28T02:28:58;99008.03;;;7.25;100.00
51452;BME280;37521;52.020;-1.740;2023-04-28T02:31:30;99003.78;;;7.23;100.00
51452;BME280;37521;52.020;-1.740;2023-04-28T02:34:00;98998.53;;;7.23;100.00
51452;BME280;37521;52.020;-1.740;2023-04-28T02:36:28;99005.63;;;7.21;100.00
51452;BME280;37521;52.020;-1.740;2023-04-28T02:38:57;99001.28;;;7.20;100.00
51452;BME280;37521;52.020;-1.740;2023-04-28T02:41:26;99002.06;;;7.22;100.00
51452;BME280;37521;52.020;-1.740;2023-04-28T02:43:55;98997.53;;;7.25;100.00
51452;BME280;37521;52.020;-1.740;2023-04-28T02:46:24;98991.91;;;7.33;100.00
51452;BME280;37521;52.020;-1.740;2023-04-28T02:48:52;98993.44;;;7.37;100.00
51452;BME280;37521;52.020;-1.740;2023-04-28T02:51:22;98986.72;;;7.49;100.00
51452;BME280;37521;52.020;-1.740;2023-04-28T02:53:50;98991.13;;;7.65;100.00
51452;BME280;37521;52.020;-1.740;2023-04-28T02:56:18;98985.25;;;7.78;100.00
51452;BME280;37521;52.020;-1.740;2023-04-28T02:58:46;98982.91;;;7.89;100.00
51452;BME280;37521;52.020;-1.740;2023-04-28T03:01:14;98986.03;;;7.97;100.00
51452;BME280;37521;52.020;-1.740;2023-04-28T03:03:42;98985.63;;;8.05;100.00
51452;BME280;37521;52.020;-1.740;2023-04-28T03:06:11;98980.03;;;8.11;100.00
51452;BME280;37521;52.020;-1.740;2023-04-28T03:08:40;98984.28;;;8.13;100.00
51452;BME280;37521;52.020;-1.740;2023-04-28T03:11:08;98995.91;;;8.09;100.00
51452;BME280;37521;52.020;-1.740;2023-04-28T03:13:37;99000.28;;;8.09;100.00
51452;BME280;37521;52.020;-1.740;2023-04-28T03:16:05;99009.19;;;8.06;100.00
51452;BME280;37521;52.020;-1.740;2023-04-28T03:18:34;99010.13;;;8.05;100.00
51452;BME280;37521;52.020;-1.740;2023-04-28T03:21:03;99007.31;;;8.08;100.00
51452;BME280;37521;52.020;-1.740;2023-04-28T03:23:31;99014.88;;;8.14;100.00
51452;BME280;37521;52.020;-1.740;2023-04-28T03:26:00;99014.88;;;8.14;100.00
51452;BME280;37521;52.020;-1.740;2023-04-28T03:28:28;99015.72;;;8.15;100.00
51452;BME280;37521;52.020;-1.740;2023-04-28T03:30:58;99026.97;;;8.18;100.00
51452;BME280;37521;52.020;-1.740;2023-04-28T03:33:27;99014.34;;;8.25;100.00
51452;BME280;37521;52.020;-1.740;2023-04-28T03:35:56;99007.91;;;8.31;100.00
51452;BME280;37521;52.020;-1.740;2023-04-28T03:38:24;99005.94;;;8.34;100.00
51452;BME280;37521;52.020;-1.740;2023-04-28T03:40:53;99010.25;;;8.37;100.00
51452;BME280;37521;52.020;-1.740;2023-04-28T03:43:40;99006.78;;;8.35;100.00
51452;BME280;37521;52.020;-1.740;2023-04-28T03:46:27;99012.16;;;8.33;100.00
51452;BME280;37521;52.020;-1.740;2023-04-28T03:48:56;99003.59;;;8.30;100.00
51452;BME280;37521;52.020;-1.740;2023-04-28T03:51:24;99014.25;;;8.27;100.00
51452;BME280;37521;52.020;-1.740;2023-04-28T03:53:54;99023.06;;;8.26;100.00
51452;BME280;37521;52.020;-1.740;2023-04-28T03:56:22;99014.44;;;8.24;100.00
51452;BME280;37521;52.020;-1.740;2023-04-28T03:58:53;99015.38;;;8.23;100.00
51452;BME280;37521;52.020;-1.740;2023-04-28T04:01:22;99020.53;;;8.24;100.00
51452;BME280;37521;52.020;-1.740;2023-04-28T04:03:52;99024.63;;;8.30;100.00
51452;BME280;37521;52.020;-1.740;2023-04-28T04:06:20;99015.81;;;8.31;100.00
51452;BME280;37521;52.020;-1.740;2023-04-28T04:08:49;99014.09;;;8.30;100.00
51452;BME280;37521;52.020;-1.740;2023-04-28T04:11:17;99015.72;;;8.32;100.00
51452;BME280;37521;52.020;-1.740;2023-04-28T04:13:45;99015.63;;;8.34;100.00
51452;BME280;37521;52.020;-1.740;2023-04-28T04:16:17;99024.44;;;8.33;100.00
51452;BME280;37521;52.020;-1.740;2023-04-28T04:18:45;99017.50;;;8.32;100.00
51452;BME280;37521;52.020;-1.740;2023-04-28T04:21:17;99011.53;;;8.28;100.00
51452;BME280;37521;52.020;-1.740;2023-04-28T04:23:48;99023.84;;;8.28;100.00
51452;BME280;37521;52.020;-1.740;2023-04-28T04:26:16;99028.34;;;8.26;100.00
51452;BME280;37521;52.020;-1.740;2023-04-28T04:28:48;99036.13;;;8.27;100.00
51452;BME280;37521;52.020;-1.740;2023-04-28T04:31:18;99034.28;;;8.29;100.00
51452;BME280;37521;52.020;-1.740;2023-04-28T04:33:48;99037.69;;;8.31;100.00
51452;BME280;37521;52.020;-1.740;2023-04-28T04:36:18;99040.41;;;8.30;100.00
51452;BME280;37521;52.020;-1.740;2023-04-28T04:38:48;99031.72;;;8.28;100.00
51452;BME280;37521;52.020;-1.740;2023-04-28T04:41:20;99040.53;;;8.27;100.00
51452;BME280;37521;52.020;-1.740;2023-04-28T04:43:56;99032.03;;;8.22;100.00
51452;BME280;37521;52.020;-1.740;2023-04-28T04:46:31;99040.78;;;8.22;100.00
51452;BME280;37521;52.020;-1.740;2023-04-28T04:49:00;99037.16;;;8.25;100.00
51452;BME280;37521;52.020;-1.740;2023-04-28T04:51:28;99042.41;;;8.25;100.00
51452;BME280;37521;52.020;-1.740;2023-04-28T04:53:56;99048.28;;;8.30;100.00
51452;BME280;37521;52.020;-1.740;2023-04-28T04:56:25;99056.19;;;8.30;100.00
51452;BME280;37521;52.020;-1.740;2023-04-28T04:58:53;99052.63;;;8.31;100.00
51452;BME280;37521;52.020;-1.740;2023-04-28T05:01:41;99059.41;;;8.35;100.00
51452;BME280;37521;52.020;-1.740;2023-04-28T05:04:10;99069.81;;;8.38;100.00
51452;BME280;37521;52.020;-1.740;2023-04-28T05:06:39;99067.00;;;8.41;100.00
51452;BME280;37521;52.020;-1.740;2023-04-28T05:09:07;99067.94;;;8.40;100.00
51452;BME280;37521;52.020;-1.740;2023-04-28T05:11:35;99073.06;;;8.43;100.00
51452;BME280;37521;52.020;-1.740;2023-04-28T05:14:04;99075.59;;;8.44;100.00
51452;BME280;37521;52.020;-1.740;2023-04-28T05:16:32;99072.03;;;8.45;100.00
51452;BME280;37521;52.020;-1.740;2023-04-28T05:19:09;99072.78;;;8.48;100.00
51452;BME280;37521;52.020;-1.740;2023-04-28T05:21:37;99074.50;;;8.49;100.00
51452;BME280;37521;52.020;-1.740;2023-04-28T05:24:06;99081.53;;;8.48;100.00
51452;BME280;37521;52.020;-1.740;2023-04-28T05:26:34;99080.59;;;8.49;100.00
51452;BME280;37521;52.020;-1.740;2023-04-28T05:29:07;99072.72;;;8.49;100.00
51452;BME280;37521;52.020;-1.740;2023-04-28T05:31:35;99070.88;;;8.51;100.00
51452;BME280;37521;52.020;-1.740;2023-04-28T05:34:03;99083.16;;;8.51;100.00
51452;BME280;37521;52.020;-1.740;2023-04-28T05:36:33;99078.66;;;8.53;100.00
51452;BME280;37521;52.020;-1.740;2023-04-28T05:39:02;99079.53;;;8.53;100.00
51452;BME280;37521;52.020;-1.740;2023-04-28T05:41:31;99082.16;;;8.53;100.00
51452;BME280;37521;52.020;-1.740;2023-04-28T05:43:59;99085.72;;;8.52;100.00
51452;BME280;37521;52.020;-1.740;2023-04-28T05:46:27;99084.78;;;8.53;100.00
51452;BME280;37521;52.020;-1.740;2023-04-28T05:48:59;99094.38;;;8.54;100.00
51452;BME280;37521;52.020;-1.740;2023-04-28T05:51:33;99095.16;;;8.56;100.00
51452;BME280;37521;52.020;-1.740;2023-04-28T05:54:01;99109.16;;;8.57;100.00
51452;BME280;37521;52.020;-1.740;2023-04-28T05:56:33;99105.69;;;8.56;100.00
51452;BME280;37521;52.020;-1.740;2023-04-28T05:59:01;99108.22;;;8.58;100.00
51452;BME280;37521;52.020;-1.740;2023-04-28T06:01:31;99105.50;;;8.59;100.00
51452;BME280;37521;52.020;-1.740;2023-04-28T06:03:59;99114.16;;;8.61;100.00
51452;BME280;37521;52.020;-1.740;2023-04-28T06:06:27;99111.53;;;8.61;100.00
51452;BME280;37521;52.020;-1.740;2023-04-28T06:08:58;99119.44;;;8.61;100.00
51452;BME280;37521;52.020;-1.740;2023-04-28T06:11:26;99120.28;;;8.62;100.00
51452;BME280;37521;52.020;-1.740;2023-04-28T06:13:56;99127.25;;;8.63;100.00
51452;BME280;37521;52.020;-1.740;2023-04-28T06:16:24;99120.97;;;8.65;100.00
51452;BME280;37521;52.020;-1.740;2023-04-28T06:18:52;99126.06;;;8.68;100.00
51452;BME280;37521;52.020;-1.740;2023-04-28T06:21:20;99131.19;;;8.71;100.00
51452;BME280;37521;52.020;-1.740;2023-04-28T06:23:50;99121.41;;;8.73;100.00
51452;BME280;37521;52.020;-1.740;2023-04-28T06:26:20;99131.00;;;8.74;100.00
51452;BME280;37521;52.020;-1.740;2023-04-28T06:28:48;99142.31;;;8.77;100.00
51452;BME280;37521;52.020;-1.740;2023-04-28T06:31:16;99140.47;;;8.79;100.00
51452;BME280;37521;52.020;-1.740;2023-04-28T06:33:45;99149.19;;;8.79;100.00
51452;BME280;37521;52.020;-1.740;2023-04-28T06:36:13;99151.66;;;8.82;100.00
51452;BME280;37521;52.020;-1.740;2023-04-28T06:38:43;99149.03;;;8.82;100.00
51452;BME280;37521;52.020;-1.740;2023-04-28T06:41:12;99162.13;;;8.84;100.00
51452;BME280;37521;52.020;-1.740;2023-04-28T06:43:44;99153.38;;;8.83;100.00
51452;BME280;37521;52.020;-1.740;2023-04-28T06:46:18;99169.09;;;8.85;100.00
51452;BME280;37521;52.020;-1.740;2023-04-28T06:48:47;99167.22;;;8.87;100.00
51452;BME280;37521;52.020;-1.740;2023-04-28T06:51:15;99166.13;;;8.91;100.00
51452;BME280;37521;52.020;-1.740;2023-04-28T06:53:43;99172.16;;;8.93;100.00
51452;BME280;37521;52.020;-1.740;2023-04-28T06:56:13;99174.56;;;8.97;100.00
51452;BME280;37521;52.020;-1.740;2023-04-28T06:58:41;99176.25;;;8.98;100.00
51452;BME280;37521;52.020;-1.740;2023-04-28T07:01:10;99179.75;;;8.99;100.00
51452;BME280;37521;52.020;-1.740;2023-04-28T07:03:38;99177.88;;;9.01;100.00
51452;BME280;37521;52.020;-1.740;2023-04-28T07:06:07;99176.94;;;9.02;100.00
51452;BME280;37521;52.020;-1.740;2023-04-28T07:08:35;99188.31;;;9.02;100.00
51452;BME280;37521;52.020;-1.740;2023-04-28T07:11:03;99186.47;;;9.05;100.00
51452;BME280;37521;52.020;-1.740;2023-04-28T07:13:32;99200.56;;;9.04;100.00
51452;BME280;37521;52.020;-1.740;2023-04-28T07:16:00;99200.56;;;9.04;100.00
51452;BME280;37521;52.020;-1.740;2023-04-28T07:18:30;99203.88;;;9.07;100.00
51452;BME280;37521;52.020;-1.740;2023-04-28T07:20:58;99205.66;;;9.07;100.00
51452;BME280;37521;52.020;-1.740;2023-04-28T07:23:29;99204.63;;;9.09;100.00
51452;BME280;37521;52.020;-1.740;2023-04-28T07:25:57;99211.44;;;9.13;100.00
51452;BME280;37521;52.020;-1.740;2023-04-28T07:28:25;99214.09;;;9.13;100.00
51452;BME280;37521;52.020;-1.740;2023-04-28T07:30:54;99220.13;;;9.15;100.00
51452;BME280;37521;52.020;-1.740;2023-04-28T07:33:23;99218.72;;;9.25;100.00
51452;BME280;37521;52.020;-1.740;2023-04-28T07:35:53;99219.06;;;9.35;100.00
51452;BME280;37521;52.020;-1.740;2023-04-28T07:38:21;99230.03;;;9.43;100.00
51452;BME280;37521;52.020;-1.740;2023-04-28T07:40:49;99229.63;;;9.51;100.00
51452;BME280;37521;52.020;-1.740;2023-04-28T07:43:17;99239.66;;;9.60;100.00
51452;BME280;37521;52.020;-1.740;2023-04-28T07:45:46;99237.72;;;9.64;100.00
51452;BME280;37521;52.020;-1.740;2023-04-28T07:48:15;99246.13;;;9.70;100.00
51452;BME280;37521;52.020;-1.740;2023-04-28T07:50:43;99242.38;;;9.74;100.00
51452;BME280;37521;52.020;-1.740;2023-04-28T07:53:13;99251.13;;;9.75;100.00
51452;BME280;37521;52.020;-1.740;2023-04-28T07:55:41;99239.59;;;9.77;100.00
51452;BME280;37521;52.020;-1.740;2023-04-28T07:58:10;99257.97;;;9.79;100.00
51452;BME280;37521;52.020;-1.740;2023-04-28T08:00:39;99254.56;;;9.93;100.00
51452;BME280;37521;52.020;-1.740;2023-04-28T08:03:07;99255.72;;;10.03;100.00
51452;BME280;37521;52.020;-1.740;2023-04-28T08:05:36;99262.53;;;10.07;100.00
51452;BME280;37521;52.020;-1.740;2023-04-28T08:08:05;99261.94;;;10.18;100.00
51452;BME280;37521;52.020;-1.740;2023-04-28T08:10:34;99266.63;;;10.28;100.00
51452;BME280;37521;52.020;-1.740;2023-04-28T08:13:03;99274.75;;;10.25;100.00
51452;BME280;37521;52.020;-1.740;2023-04-28T08:15:31;99274.94;;;10.21;100.00
51452;BME280;37521;52.020;-1.740;2023-04-28T08:18:00;99275.69;;;10.24;100.00
51452;BME280;37521;52.020;-1.740;2023-04-28T08:20:28;99267.97;;;10.35;100.00
51452;BME280;37521;52.020;-1.740;2023-04-28T08:22:58;99274.25;;;10.49;100.00
51452;BME280;37521;52.020;-1.740;2023-04-28T08:25:26;99275.78;;;10.53;100.00
51452;BME280;37521;52.020;-1.740;2023-04-28T08:27:57;99285.81;;;10.62;100.00
51452;BME280;37521;52.020;-1.740;2023-04-28T08:30:26;99287.94;;;10.71;100.00
51452;BME280;37521;52.020;-1.740;2023-04-28T08:32:54;99290.38;;;10.74;100.00
51452;BME280;37521;52.020;-1.740;2023-04-28T08:35:22;99301.53;;;10.79;100.00
51452;BME280;37521;52.020;-1.740;2023-04-28T08:37:51;99304.66;;;10.86;100.00
51452;BME280;37521;52.020;-1.740;2023-04-28T08:40:19;99307.56;;;10.81;100.00
51452;BME280;37521;52.020;-1.740;2023-04-28T08:42:48;99310.84;;;10.71;100.00
51452;BME280;37521;52.020;-1.740;2023-04-28T08:45:17;99314.84;;;10.62;100.00
51452;BME280;37521;52.020;-1.740;2023-04-28T08:47:48;99308.41;;;10.52;100.00
51452;BME280;37521;52.020;-1.740;2023-04-28T08:50:20;99320.75;;;10.35;100.00
51452;BME280;37521;52.020;-1.740;2023-04-28T08:52:51;99321.28;;;10.26;100.00
51452;BME280;37521;52.020;-1.740;2023-04-28T08:55:19;99326.88;;;10.20;100.00
51452;BME280;37521;52.020;-1.740;2023-04-28T08:57:49;99329.44;;;10.06;100.00
51452;BME280;37521;52.020;-1.740;2023-04-28T09:00:19;99342.00;;;10.01;100.00
51452;BME280;37521;52.020;-1.740;2023-04-28T09:02:48;99338.75;;;9.96;100.00
51452;BME280;37521;52.020;-1.740;2023-04-28T09:05:16;99349.25;;;9.97;100.00
51452;BME280;37521;52.020;-1.740;2023-04-28T09:07:45;99346.00;;;10.08;100.00
51452;BME280;37521;52.020;-1.740;2023-04-28T09:10:16;99350.50;;;10.23;100.00
51452;BME280;37521;52.020;-1.740;2023-04-28T09:12:45;99345.34;;;10.36;100.00
51452;BME280;37521;52.020;-1.740;2023-04-28T09:15:27;99347.41;;;10.47;100.00
51452;BME280;37521;52.020;-1.740;2023-04-28T09:17:58;99350.97;;;10.61;100.00
51452;BME280;37521;52.020;-1.740;2023-04-28T09:20:28;99358.88;;;10.77;100.00
51452;BME280;37521;52.020;-1.740;2023-04-28T09:23:12;99368.53;;;10.93;100.00
51452;BME280;37521;52.020;-1.740;2023-04-28T09:25:55;99372.78;;;10.95;100.00
51452;BME280;37521;52.020;-1.740;2023-04-28T09:28:24;99375.06;;;11.01;100.00
51452;BME280;37521;52.020;-1.740;2023-04-28T09:30:54;99375.16;;;11.00;100.00
51452;BME280;37521;52.020;-1.740;2023-04-28T09:33:22;99382.69;;;10.91;100.00
51452;BME280;37521;52.020;-1.740;2023-04-28T09:35:51;99385.09;;;10.80;100.00
51452;BME280;37521;52.020;-1.740;2023-04-28T09:38:20;99406.91;;;10.68;100.00
51452;BME280;37521;52.020;-1.740;2023-04-28T09:40:50;99406.16;;;10.50;100.00
51452;BME280;37521;52.020;-1.740;2023-04-28T09:43:37;99409.66;;;10.51;100.00
51452;BME280;37521;52.020;-1.740;2023-04-28T09:46:07;99412.81;;;10.57;100.00
51452;BME280;37521;52.020;-1.740;2023-04-28T09:48:36;99413.53;;;10.75;100.00
51452;BME280;37521;52.020;-1.740;2023-04-28T09:51:06;99421.53;;;10.89;100.00
51452;BME280;37521;52.020;-1.740;2023-04-28T09:53:36;99428.19;;;10.81;100.00
51452;BME280;37521;52.020;-1.740;2023-04-28T09:56:04;99428.03;;;10.68;100.00
51452;BME280;37521;52.020;-1.740;2023-04-28T09:58:33;99432.66;;;10.64;100.00
51452;BME280;37521;52.020;-1.740;2023-04-28T10:01:02;99440.47;;;10.66;100.00
51452;BME280;37521;52.020;-1.740;2023-04-28T10:03:34;99433.31;;;10.68;100.00
51452;BME280;37521;52.020;-1.740;2023-04-28T10:06:04;99442.59;;;10.75;100.00
51452;BME280;37521;52.020;-1.740;2023-04-28T10:08:34;99433.34;;;11.14;100.00
51452;BME280;37521;52.020;-1.740;2023-04-28T10:11:02;99444.41;;;11.51;100.00
51452;BME280;37521;52.020;-1.740;2023-04-28T10:13:31;99438.75;;;11.57;100.00
51452;BME280;37521;52.020;-1.740;2023-04-28T10:16:02;99437.47;;;11.78;100.00
51452;BME280;37521;52.020;-1.740;2023-04-28T10:18:31;99441.69;;;12.25;100.00
51452;BME280;37521;52.020;-1.740;2023-04-28T10:21:03;99431.81;;;12.41;100.00
51452;BME280;37521;52.020;-1.740;2023-04-28T10:23:47;99441.97;;;12.76;100.00
51452;BME280;37521;52.020;-1.740;2023-04-28T10:26:20;99419.47;;;12.96;100.00
51452;BME280;37521;52.020;-1.740;2023-04-28T10:28:51;99432.03;;;13.06;100.00
51452;BME280;37521;52.020;-1.740;2023-04-28T10:31:20;99436.69;;;13.30;100.00
51452;BME280;37521;52.020;-1.740;2023-04-28T10:33:49;99440.56;;;13.64;100.00
51452;BME280;37521;52.020;-1.740;2023-04-28T10:39:22;99451.78;;;13.42;100.00
51452;BME280;37521;52.020;-1.740;2023-04-28T10:41:50;99447.44;;;13.14;100.00
51452;BME280;37521;52.020;-1.740;2023-04-28T10:44:42;99465.75;;;12.77;100.00
51452;BME280;37521;52.020;-1.740;2023-04-28T10:47:10;99473.16;;;12.44;100.00
51452;BME280;37521;52.020;-1.740;2023-04-28T10:50:03;99475.25;;;12.24;100.00
51452;BME280;37521;52.020;-1.740;2023-04-28T10:52:51;99480.13;;;12.02;100.00
51452;BME280;37521;52.020;-1.740;2023-04-28T10:55:48;99478.91;;;11.93;100.00
51452;BME280;37521;52.020;-1.740;2023-04-28T10:58:32;99484.69;;;12.14;100.00
51452;BME280;37521;52.020;-1.740;2023-04-28T11:01:24;99478.13;;;12.63;100.00
51452;BME280;37521;52.020;-1.740;2023-04-28T11:03:53;99475.69;;;12.60;100.00
51452;BME280;37521;52.020;-1.740;2023-04-28T11:06:30;99479.97;;;12.48;100.00
51452;BME280;37521;52.020;-1.740;2023-04-28T11:09:02;99479.88;;;12.35;100.00
51452;BME280;37521;52.020;-1.740;2023-04-28T11:11:32;99487.22;;;12.30;100.00
51452;BME280;37521;52.020;-1.740;2023-04-28T11:17:08;99489.59;;;12.06;100.00
51452;BME280;37521;52.020;-1.740;2023-04-28T11:19:41;99493.25;;;11.89;100.00
51452;BME280;37521;52.020;-1.740;2023-04-28T11:22:14;99492.59;;;11.70;100.00
51452;BME280;37521;52.020;-1.740;2023-04-28T11:24:54;99495.75;;;11.46;100.00
51452;BME280;37521;52.020;-1.740;2023-04-28T11:27:26;99494.88;;;11.32;100.00
51452;BME280;37521;52.020;-1.740;2023-04-28T11:29:55;99500.50;;;11.26;100.00
51452;BME280;37521;52.020;-1.740;2023-04-28T11:32:26;99495.22;;;11.26;100.00
51452;BME280;37521;52.020;-1.740;2023-04-28T11:34:55;99509.09;;;11.29;100.00
51452;BME280;37521;52.020;-1.740;2023-04-28T11:37:24;99511.56;;;11.32;100.00
51452;BME280;37521;52.020;-1.740;2023-04-28T11:39:53;99509.16;;;11.43;100.00
51452;BME280;37521;52.020;-1.740;2023-04-28T11:42:24;99506.41;;;11.75;100.00
51452;BME280;37521;52.020;-1.740;2023-04-28T11:44:55;99510.88;;;12.19;100.00
51452;BME280;37521;52.020;-1.740;2023-04-28T11:47:30;99508.13;;;12.49;100.00
51452;BME280;37521;52.020;-1.740;2023-04-28T11:49:59;99511.34;;;12.54;100.00
51452;BME280;37521;52.020;-1.740;2023-04-28T11:52:28;99516.84;;;12.51;100.00
51452;BME280;37521;52.020;-1.740;2023-04-28T11:54:57;99512.94;;;12.42;100.00
51452;BME280;37521;52.020;-1.740;2023-04-28T11:57:28;99514.59;;;12.31;100.00
51452;BME280;37521;52.020;-1.740;2023-04-28T12:00:11;99524.97;;;12.34;100.00
51452;BME280;37521;52.020;-1.740;2023-04-28T12:02:39;99523.19;;;12.34;100.00
51452;BME280;37521;52.020;-1.740;2023-04-28T12:05:09;99527.72;;;12.32;100.00
51452;BME280;37521;52.020;-1.740;2023-04-28T12:07:41;99524.31;;;12.44;100.00
51452;BME280;37521;52.020;-1.740;2023-04-28T12:10:11;99520.28;;;12.94;100.00
51452;BME280;37521;52.020;-1.740;2023-04-28T12:12:41;99520.75;;;13.01;100.00
51452;BME280;37521;52.020;-1.740;2023-04-28T12:15:12;99520.28;;;12.94;100.00
51452;BME280;37521;52.020;-1.740;2023-04-28T12:17:41;99524.94;;;12.91;100.00
51452;BME280;37521;52.020;-1.740;2023-04-28T12:20:11;99524.75;;;12.79;100.00
51452;BME280;37521;52.020;-1.740;2023-04-28T12:22:43;99526.97;;;12.59;100.00
51452;BME280;37521;52.020;-1.740;2023-04-28T12:25:13;99525.66;;;12.37;100.00
51452;BME280;37521;52.020;-1.740;2023-04-28T12:30:36;99546.28;;;12.02;100.00
51452;BME280;37521;52.020;-1.740;2023-04-28T12:33:21;99557.78;;;11.87;100.00
51452;BME280;37521;52.020;-1.740;2023-04-28T12:35:50;99554.63;;;11.80;100.00
51452;BME280;37521;52.020;-1.740;2023-04-28T12:38:21;99548.41;;;11.81;100.00
51452;BME280;37521;52.020;-1.740;2023-04-28T12:40:49;99567.25;;;11.91;100.00
51452;BME280;37521;52.020;-1.740;2023-04-28T12:43:17;99565.59;;;12.04;100.00
51452;BME280;37521;52.020;-1.740;2023-04-28T12:45:48;99567.91;;;12.24;100.00
51452;BME280;37521;52.020;-1.740;2023-04-28T12:48:16;99564.09;;;12.43;100.00
51452;BME280;37521;52.020;-1.740;2023-04-28T12:50:45;99573.69;;;12.60;100.00
51452;BME280;37521;52.020;-1.740;2023-04-28T12:53:13;99573.47;;;12.63;100.00
51452;BME280;37521;52.020;-1.740;2023-04-28T12:55:41;99576.81;;;12.66;100.00
51452;BME280;37521;52.020;-1.740;2023-04-28T12:58:09;99580.56;;;12.76;100.00
51452;BME280;37521;52.020;-1.740;2023-04-28T13:00:38;99579.44;;;12.80;100.00
51452;BME280;37521;52.020;-1.740;2023-04-28T13:03:09;99583.31;;;12.75;100.00
51452;BME280;37521;52.020;-1.740;2023-04-28T13:05:37;99586.25;;;12.70;100.00
51452;BME280;37521;52.020;-1.740;2023-04-28T13:08:05;99586.19;;;12.72;100.00